Time;durP1;ratioP1;P1;durP2;ratioP2;P2;SDS_P1;SDS_P2;PMS_P1;PMS_P2;Temp;Humidity;BMP_temperature;BMP_pressure;BME280_temperature;BME280_humidity;BME280_pressure;Samples;Min_cycle;Max_cycle;Signal;HPM_P1;HPM_P2
2022/08/26 00:01:55;;;;;;;5.70;3.20;;;;;;;16.79;65.85;98917.09;104405;1284;75849;-23
2022/08/26 00:04:23;;;;;;;6.90;4.10;;;;;;;16.48;66.48;98915.29;104420;1284;77057;-23
2022/08/26 00:06:53;;;;;;;7.50;4.20;;;;;;;16.24;67.53;98914.42;105041;1274;74267;-23
2022/08/26 00:09:22;;;;;;;8.90;4.90;;;;;;;16.11;67.19;98911.39;104780;1274;62770;-23
2022/08/26 00:11:51;;;;;;;8.90;4.80;;;;;;;16.13;67.37;98911.48;105015;1271;61863;-23
2022/08/26 00:14:19;;;;;;;5.80;3.40;;;;;;;16.22;67.37;98908.94;104668;1274;74805;-23
2022/08/26 00:16:46;;;;;;;8.80;3.70;;;;;;;16.81;65.77;98904.53;104844;1274;77341;-23
2022/08/26 00:19:16;;;;;;;5.20;3.90;;;;;;;17.37;63.69;98903.17;104791;1274;74084;-23
2022/08/26 00:21:45;;;;;;;13.30;4.80;;;;;;;17.47;62.92;98899.98;104771;1271;62886;-23
2022/08/26 00:24:15;;;;;;;8.40;4.30;;;;;;;17.37;63.30;98898.31;104839;1272;61986;-23
2022/08/26 00:26:42;;;;;;;13.50;4.60;;;;;;;17.25;63.55;98895.95;105018;1271;75850;-23
2022/08/26 00:29:11;;;;;;;7.30;4.20;;;;;;;17.05;63.72;98896.65;105114;1272;76996;-23
2022/08/26 00:31:39;;;;;;;12.40;4.80;;;;;;;16.93;64.36;98896.21;105114;1271;74305;-23
2022/08/26 00:34:07;;;;;;;13.50;5.50;;;;;;;16.84;64.65;98897.75;105160;1271;61970;-23
2022/08/26 00:36:36;;;;;;;8.80;5.00;;;;;;;16.75;65.29;98897.89;104729;1274;63060;-23
2022/08/26 00:39:06;;;;;;;7.70;4.20;;;;;;;16.71;65.56;98902.69;104774;1271;75757;-23
2022/08/26 00:41:34;;;;;;;9.10;4.80;;;;;;;16.57;66.03;98904.88;105087;1272;75807;-23
2022/08/26 00:44:01;;;;;;;7.80;3.90;;;;;;;16.49;66.51;98905.39;104673;1271;74441;-23
2022/08/26 00:46:30;;;;;;;9.70;4.20;;;;;;;16.95;65.15;98900.21;105047;1271;61546;-22
2022/08/26 00:49:06;;;;;;;7.10;4.00;;;;;;;17.44;64.02;98899.27;104400;1274;63070;-23
2022/08/26 00:51:52;;;;;;;6.10;4.30;;;;;;;17.44;63.56;98897.97;104728;1271;74633;-23
2022/08/26 00:54:22;;;;;;;5.40;4.00;;;;;;;17.20;63.66;98896.09;105012;1271;77084;-23
2022/08/26 00:57:01;;;;;;;9.20;4.70;;;;;;;16.96;64.58;98895.95;104800;1272;74346;-23
2022/08/26 00:59:29;;;;;;;6.90;4.30;;;;;;;16.86;64.92;98893.50;104866;1271;62817;-24
2022/08/26 01:01:59;;;;;;;7.80;5.00;;;;;;;16.76;65.13;98891.92;104924;1272;62138;-23
2022/08/26 01:04:29;;;;;;;6.90;4.30;;;;;;;16.66;65.35;98897.75;104881;1274;74789;-23
2022/08/26 01:06:56;;;;;;;6.90;4.10;;;;;;;16.62;66.36;98897.36;104866;1271;77353;-23
2022/08/26 01:09:23;;;;;;;6.70;3.90;;;;;;;16.47;67.37;98896.98;105146;1274;72932;-23
2022/08/26 01:11:54;;;;;;;7.40;3.00;;;;;;;16.80;66.72;98890.33;104814;1274;63004;-23
2022/08/26 01:14:21;;;;;;;7.60;3.50;;;;;;;17.27;65.80;98890.07;104772;1271;61976;-23
2022/08/26 01:16:48;;;;;;;5.40;4.00;;;;;;;17.26;64.99;98888.10;104941;1272;75927;-23
2022/08/26 01:19:25;;;;;;;7.90;3.90;;;;;;;17.08;64.98;98887.60;104831;1271;77453;-24
2022/08/26 01:22:04;;;;;;;5.60;3.70;;;;;;;16.84;65.82;98888.41;104850;1271;75517;-24
2022/08/26 01:24:31;;;;;;;9.40;3.90;;;;;;;16.59;66.23;98896.10;104733;1271;62128;-25
2022/08/26 01:27:00;;;;;;;7.30;3.80;;;;;;;16.35;66.82;98896.97;104952;1271;63300;-24
2022/08/26 01:29:27;;;;;;;14.00;4.20;;;;;;;16.05;67.64;98897.94;105006;1272;75704;-24
2022/08/26 01:31:55;;;;;;;6.90;4.20;;;;;;;15.78;68.18;98896.42;105060;1271;76781;-24
2022/08/26 01:34:27;;;;;;;9.60;4.20;;;;;;;15.57;69.22;98895.28;104945;1272;75412;-24
2022/08/26 01:37:00;;;;;;;4.50;2.90;;;;;;;15.45;70.01;98898.30;104749;1271;64649;-24
2022/08/26 01:39:28;;;;;;;5.50;3.00;;;;;;;15.97;69.52;98896.90;104710;1271;63234;-24
2022/08/26 01:41:55;;;;;;;5.00;3.10;;;;;;;16.50;67.91;98899.34;105032;1271;74690;-24
2022/08/26 01:44:31;;;;;;;8.60;4.30;;;;;;;16.58;67.02;98898.14;105088;1274;76922;-24
2022/08/26 01:46:58;;;;;;;7.80;3.70;;;;;;;16.48;66.71;98896.92;104994;1272;74176;-24
2022/08/26 01:49:26;;;;;;;5.50;3.70;;;;;;;16.29;67.33;98895.27;105079;1272;62818;-24
2022/08/26 01:51:54;;;;;;;8.20;4.00;;;;;;;16.05;68.24;98893.44;105103;1271;61917;-24
2022/08/26 01:54:23;;;;;;;8.80;3.70;;;;;;;15.78;68.95;98892.06;104774;1271;74764;-24
2022/08/26 01:56:51;;;;;;;6.70;3.80;;;;;;;15.59;69.50;98890.23;104818;1272;76965;-24
2022/08/26 01:59:19;;;;;;;5.60;3.60;;;;;;;15.45;69.84;98891.27;104815;1271;75473;-24
2022/08/26 02:01:47;;;;;;;5.00;2.90;;;;;;;15.33;70.08;98890.11;104667;1272;63798;-24
2022/08/26 02:04:21;;;;;;;5.10;2.80;;;;;;;15.77;70.34;98891.34;104619;1271;62768;-25
2022/08/26 02:06:48;;;;;;;8.10;2.90;;;;;;;16.26;68.17;98893.30;104702;1277;75514;-24
2022/08/26 02:09:16;;;;;;;6.50;3.60;;;;;;;16.28;68.09;98887.48;104776;1271;74985;-24
2022/08/26 02:11:43;;;;;;;4.90;3.40;;;;;;;16.09;68.09;98891.22;104725;1271;74580;-24
2022/08/26 02:14:14;;;;;;;4.70;3.60;;;;;;;15.81;68.88;98889.78;105025;1271;61131;-24
2022/08/26 02:16:43;;;;;;;5.90;3.90;;;;;;;15.53;69.70;98886.73;104984;1271;62780;-24
2022/08/26 02:19:16;;;;;;;7.80;4.70;;;;;;;15.31;70.59;98890.05;104957;1271;75721;-24
2022/08/26 02:21:44;;;;;;;5.60;4.10;;;;;;;15.14;70.96;98889.09;105127;1271;75948;-24
2022/08/26 02:24:23;;;;;;;6.70;3.10;;;;;;;14.99;71.25;98887.11;105049;1271;75331;-24
2022/08/26 02:26:54;;;;;;;6.10;2.80;;;;;;;15.47;70.83;98890.20;105064;1271;63212;-24
2022/08/26 02:29:31;;;;;;;5.10;3.30;;;;;;;15.99;68.82;98891.67;104803;1271;61984;-24
2022/08/26 02:31:59;;;;;;;7.30;3.60;;;;;;;16.03;68.15;98892.44;104682;1273;74712;-24
2022/08/26 02:34:31;;;;;;;6.10;3.70;;;;;;;15.87;68.41;98892.54;104991;1271;76976;-24
2022/08/26 02:36:59;;;;;;;6.90;3.70;;;;;;;15.64;68.87;98892.30;104812;1272;75294;-24
2022/08/26 02:39:28;;;;;;;7.00;4.00;;;;;;;15.43;69.45;98899.61;104830;1272;62889;-24
2022/08/26 02:41:55;;;;;;;8.30;4.10;;;;;;;15.21;69.98;98896.20;105087;1271;61981;-24
2022/08/26 02:44:23;;;;;;;5.40;3.60;;;;;;;15.01;70.68;98896.98;105154;1271;75838;-24
2022/08/26 02:46:51;;;;;;;4.80;2.90;;;;;;;14.84;71.48;98898.41;104917;1270;77038;-24
2022/08/26 02:49:20;;;;;;;7.30;2.70;;;;;;;15.26;71.59;98896.17;104777;1272;75117;-24
2022/08/26 02:51:48;;;;;;;4.90;3.30;;;;;;;15.76;70.11;98894.25;104839;1271;61916;-24
2022/08/26 02:54:17;;;;;;;7.20;3.70;;;;;;;15.76;69.55;98892.27;104615;1274;61964;-24
2022/08/26 02:56:44;;;;;;;4.70;3.20;;;;;;;15.57;70.28;98892.55;104819;1271;75834;-24
2022/08/26 02:59:11;;;;;;;5.40;3.70;;;;;;;15.33;70.96;98895.16;104815;1272;76805;-24
2022/08/26 03:01:39;;;;;;;6.60;3.60;;;;;;;15.14;71.23;98894.66;105041;1274;74069;-24
2022/08/26 03:04:08;;;;;;;7.70;4.50;;;;;;;14.97;72.18;98898.09;105109;1274;61832;-24
2022/08/26 03:06:36;;;;;;;6.20;3.10;;;;;;;14.86;73.63;98897.34;104817;1271;62899;-24
2022/08/26 03:09:03;;;;;;;10.70;7.80;;;;;;;15.28;72.49;98892.14;104657;1275;76226;-24
2022/08/26 03:11:31;;;;;;;38.90;18.00;;;;;;;15.85;70.31;98892.01;105101;1274;77103;-24
2022/08/26 03:13:59;;;;;;;35.10;15.80;;;;;;;16.02;69.29;98891.50;104904;1271;73391;-24
2022/08/26 03:16:33;;;;;;;13.10;7.00;;;;;;;15.93;69.03;98898.05;105114;1271;63370;-24
2022/08/26 03:19:01;;;;;;;122.80;45.80;;;;;;;15.74;69.49;98894.88;105116;1274;61952;-24
2022/08/26 03:21:29;;;;;;;75.90;29.90;;;;;;;15.49;70.58;98893.30;104889;1274;76629;-24
2022/08/26 03:23:56;;;;;;;32.10;13.40;;;;;;;15.24;71.46;98895.32;105122;1272;76996;-24
2022/08/26 03:26:24;;;;;;;24.30;10.80;;;;;;;15.02;72.03;98894.09;105118;1272;75782;-24
2022/08/26 03:31:38;;;;;;;9.80;4.40;;;;;;;15.38;71.63;98890.27;104825;1272;62215;-24
2022/08/26 03:34:05;;;;;;;16.00;8.40;;;;;;;15.77;70.09;98890.74;105150;1272;75373;-24
2022/08/26 03:36:32;;;;;;;13.10;7.50;;;;;;;15.70;70.70;98888.86;105087;1273;74695;-24
2022/08/26 03:39:01;;;;;;;11.80;5.80;;;;;;;15.62;70.27;98886.23;105105;1270;74319;-24
2022/08/26 03:41:31;;;;;;;7.50;4.00;;;;;;;15.42;70.71;98885.67;105097;1271;61151;-24
2022/08/26 03:43:58;;;;;;;12.60;5.50;;;;;;;15.23;72.01;98886.02;105094;1271;62361;-24
2022/08/26 03:46:27;;;;;;;10.20;4.80;;;;;;;15.14;72.36;98887.95;105137;1274;75243;-24
2022/08/26 03:48:56;;;;;;;7.10;3.60;;;;;;;15.16;72.04;98885.36;105069;1271;75710;-24
2022/08/26 03:51:24;;;;;;;10.70;3.00;;;;;;;15.73;71.31;98887.13;105123;1272;74815;-24
2022/08/26 03:53:52;;;;;;;15.40;3.70;;;;;;;16.44;68.93;98886.61;105037;1271;63059;-24
2022/08/26 03:56:19;;;;;;;6.70;4.10;;;;;;;16.63;67.77;98882.13;104743;1271;61813;-24
2022/08/26 03:58:46;;;;;;;9.40;3.40;;;;;;;16.63;67.78;98885.46;104938;1274;75550;-24
2022/08/26 04:01:13;;;;;;;8.60;4.10;;;;;;;16.59;67.82;98886.92;105048;1274;76867;-23
2022/08/26 04:03:57;;;;;;;8.60;3.40;;;;;;;16.61;67.68;98884.96;105097;1274;74069;-24
2022/08/26 04:06:32;;;;;;;6.80;3.90;;;;;;;16.59;67.69;98884.58;104768;1273;62003;-24
2022/08/26 04:09:00;;;;;;;6.10;3.90;;;;;;;16.56;67.72;98879.94;104880;1271;61813;-24
2022/08/26 04:11:30;;;;;;;6.10;3.70;;;;;;;16.55;68.42;98878.70;104729;1271;75917;-25
2022/08/26 04:14:02;;;;;;;5.90;3.00;;;;;;;16.64;68.11;98877.27;104660;1272;75972;-24
2022/08/26 04:16:29;;;;;;;5.30;3.50;;;;;;;17.28;67.73;98873.11;104631;1274;74481;-25
2022/08/26 04:18:56;;;;;;;4.10;2.80;;;;;;;18.06;65.49;98870.48;104965;1271;63216;-23
2022/08/26 04:21:24;;;;;;;4.80;3.60;;;;;;;18.34;64.57;98864.02;105085;1272;61092;-23
2022/08/26 04:23:52;;;;;;;9.40;3.80;;;;;;;18.40;64.39;98866.33;105042;1271;76663;-24
2022/08/26 04:26:20;;;;;;;5.40;3.60;;;;;;;18.41;64.66;98865.89;104869;1274;76145;-23
2022/08/26 04:28:48;;;;;;;8.30;4.30;;;;;;;18.38;64.73;98863.22;104839;1274;74307;-23
2022/08/26 04:31:16;;;;;;;8.80;4.60;;;;;;;18.39;64.55;98862.73;104946;1271;63219;-23
2022/08/26 04:33:46;;;;;;;6.10;3.90;;;;;;;18.45;64.55;98859.83;104865;1274;63087;-23
2022/08/26 04:36:16;;;;;;;8.90;4.40;;;;;;;18.50;64.85;98861.89;104704;1274;75335;-24
2022/08/26 04:38:46;;;;;;;8.80;4.90;;;;;;;18.59;64.43;98862.94;105137;1274;77189;-24
2022/08/26 04:41:13;;;;;;;10.80;5.60;;;;;;;18.61;63.09;98861.91;105122;1271;74390;-23
2022/08/26 04:43:43;;;;;;;36.10;17.30;;;;;;;18.62;63.12;98862.21;104911;1271;62326;-23
2022/08/26 04:46:12;;;;;;;22.50;6.90;;;;;;;18.45;63.32;98863.52;104824;1271;62038;-24
2022/08/26 04:48:39;;;;;;;17.50;9.80;;;;;;;18.44;63.96;98866.63;105046;1274;76271;-25
2022/08/26 04:51:08;;;;;;;28.50;17.00;;;;;;;18.49;63.60;98861.95;104871;1274;76943;-24
2022/08/26 04:53:36;;;;;;;55.00;28.80;;;;;;;18.34;64.28;98864.73;104655;1270;74293;-24
2022/08/26 04:56:03;;;;;;;38.30;21.20;;;;;;;18.45;64.22;98865.13;104825;1271;63060;-24
2022/08/26 04:58:30;;;;;;;15.70;8.80;;;;;;;18.58;64.37;98865.72;104862;1272;62021;-24
2022/08/26 05:00:58;;;;;;;23.00;10.80;;;;;;;18.70;63.86;98859.84;104677;1274;76533;-24
2022/08/26 05:03:28;;;;;;;12.60;7.20;;;;;;;18.86;63.87;98860.85;104943;1271;76716;-24
2022/08/26 05:05:57;;;;;;;12.70;7.70;;;;;;;18.90;63.14;98865.10;104757;1272;73844;-25
2022/08/26 05:08:24;;;;;;;23.10;14.70;;;;;;;18.83;63.43;98868.20;104898;1271;63046;-24
2022/08/26 05:10:55;;;;;;;85.30;44.50;;;;;;;18.82;63.65;98872.34;104984;1271;62846;-24
2022/08/26 05:13:25;;;;;;;17.90;9.90;;;;;;;18.80;64.12;98871.50;104802;1272;75324;-24
2022/08/26 05:15:52;;;;;;;17.20;8.80;;;;;;;19.07;63.47;98871.97;104715;1271;77329;-24
2022/08/26 05:18:23;;;;;;;15.00;9.00;;;;;;;19.15;63.39;98866.02;104791;1271;75539;-24
2022/08/26 05:20:52;;;;;;;17.00;10.90;;;;;;;19.24;63.22;98864.05;105011;1271;61744;-24
2022/08/26 05:23:23;;;;;;;30.90;16.50;;;;;;;19.41;63.05;98865.04;104746;1274;61717;-24
2022/08/26 05:25:51;;;;;;;20.10;10.60;;;;;;;19.52;62.15;98864.55;105007;1271;76520;-24
2022/08/26 05:28:25;;;;;;;28.00;16.30;;;;;;;19.74;61.51;98859.08;104713;1271;76965;-24
2022/08/26 05:30:54;;;;;;;17.90;10.10;;;;;;;19.89;61.76;98853.23;104862;1274;75385;-24
2022/08/26 05:33:22;;;;;;;22.60;11.00;;;;;;;20.22;61.30;98852.61;105111;1271;61792;-24
2022/08/26 05:35:49;;;;;;;18.10;9.90;;;;;;;20.14;60.50;98850.52;104968;1271;63221;-24
2022/08/26 05:38:19;;;;;;;20.00;10.80;;;;;;;20.09;60.40;98852.14;104849;1274;76566;-24
2022/08/26 05:40:49;;;;;;;17.20;10.10;;;;;;;19.89;61.06;98853.85;104831;1272;76911;-25
2022/08/26 05:43:19;;;;;;;15.40;9.50;;;;;;;19.98;61.48;98852.16;104632;1271;75399;-25
2022/08/26 05:45:47;;;;;;;30.60;16.80;;;;;;;19.97;61.36;98851.55;104817;1271;63426;-24
2022/08/26 05:48:19;;;;;;;40.00;20.60;;;;;;;20.08;61.77;98850.11;104596;1271;63010;-25
2022/08/26 05:50:51;;;;;;;52.20;28.40;;;;;;;20.41;60.60;98846.09;104612;1271;75460;-24
2022/08/26 05:53:19;;;;;;;33.70;20.20;;;;;;;20.53;59.63;98845.44;104919;1271;75820;-25
2022/08/26 05:55:52;;;;;;;41.50;23.20;;;;;;;20.70;59.85;98846.39;104882;1271;75401;-25
2022/08/26 05:58:20;;;;;;;66.10;38.20;;;;;;;20.77;58.89;98845.81;105003;1272;63075;-25
2022/08/26 06:01:00;;;;;;;51.90;31.90;;;;;;;20.85;59.45;98842.08;104917;1271;61774;-25
2022/08/26 06:03:30;;;;;;;29.00;15.80;;;;;;;21.12;58.95;98843.06;105129;1271;74212;-25
2022/08/26 06:05:57;;;;;;;30.80;17.10;;;;;;;21.25;58.33;98837.70;104523;1271;75948;-25
2022/08/26 06:08:25;;;;;;;31.10;14.20;;;;;;;21.37;57.64;98836.33;104737;1274;75258;-25
2022/08/26 06:10:53;;;;;;;36.00;16.80;;;;;;;21.36;56.77;98836.29;104856;1271;61962;-25
2022/08/26 06:13:27;;;;;;;32.90;15.30;;;;;;;21.35;56.63;98832.17;104769;1271;61135;-25
2022/08/26 06:15:58;;;;;;;19.70;10.30;;;;;;;21.51;56.32;98833.83;104665;1271;76838;-25
2022/08/26 06:18:33;;;;;;;18.90;9.10;;;;;;;21.78;55.72;98835.60;104864;1271;76570;-22
2022/08/26 06:21:14;;;;;;;45.30;20.00;;;;;;;21.97;55.78;98835.80;104819;1273;75675;-27
2022/08/26 06:26:27;;;;;;;56.40;23.30;;;;;;;21.72;56.82;98829.34;104629;1274;62361;-24
2022/08/26 06:28:54;;;;;;;35.70;16.10;;;;;;;21.68;56.87;98830.23;105098;1271;75328;-24
2022/08/26 06:31:22;;;;;;;28.30;12.40;;;;;;;21.75;57.12;98825.27;105136;1271;76665;-24
2022/08/26 06:33:49;;;;;;;17.40;7.10;;;;;;;22.09;56.23;98825.71;104894;1274;75321;-24
2022/08/26 06:36:18;;;;;;;11.40;6.10;;;;;;;22.13;55.01;98825.38;105091;1271;63145;-24
2022/08/26 06:38:47;;;;;;;13.20;5.80;;;;;;;22.02;55.48;98826.58;105040;1271;61913;-24
2022/08/26 06:41:15;;;;;;;16.50;6.20;;;;;;;22.33;55.27;98825.18;104941;1274;76660;-24
2022/08/26 06:43:43;;;;;;;11.20;5.90;;;;;;;22.56;54.93;98823.56;104909;1271;76879;-24
2022/08/26 06:46:11;;;;;;;10.80;5.80;;;;;;;22.70;55.16;98827.18;104770;1271;75276;-23
2022/08/26 06:48:38;;;;;;;10.30;6.00;;;;;;;22.85;53.54;98825.95;104736;1271;61940;-23
2022/08/26 06:51:11;;;;;;;26.70;13.30;;;;;;;22.98;53.61;98827.06;105086;1271;61717;-23
2022/08/26 06:53:39;;;;;;;11.40;6.20;;;;;;;23.17;53.33;98824.11;105041;1271;76371;-25
2022/08/26 06:56:08;;;;;;;13.20;5.60;;;;;;;23.34;52.83;98826.75;105137;1271;76006;-24
2022/08/26 06:58:36;;;;;;;61.40;28.00;;;;;;;23.47;53.43;98827.36;104729;1271;74101;-23
2022/08/26 07:01:04;;;;;;;15.90;9.20;;;;;;;23.60;53.01;98826.69;104807;1271;63262;-23
2022/08/26 07:03:37;;;;;;;45.40;17.80;;;;;;;23.69;53.30;98829.33;105012;1271;61719;-24
2022/08/26 07:06:06;;;;;;;27.50;11.30;;;;;;;23.51;52.75;98828.10;104921;1271;75535;-24
2022/08/26 07:08:33;;;;;;;45.70;18.30;;;;;;;23.68;52.03;98826.02;104759;1271;77172;-24
2022/08/26 07:11:07;;;;;;;15.20;8.20;;;;;;;23.73;51.90;98824.39;104993;1271;75072;-24
2022/08/26 07:13:37;;;;;;;12.50;5.40;;;;;;;24.14;51.38;98825.45;105068;1271;62758;-24
2022/08/26 07:16:07;;;;;;;14.40;7.10;;;;;;;24.30;50.36;98820.83;104901;1274;63013;-24
2022/08/26 07:18:35;;;;;;;12.70;6.40;;;;;;;24.35;49.93;98820.33;105048;1271;76490;-24
2022/08/26 07:21:06;;;;;;;10.80;5.30;;;;;;;24.29;49.55;98817.66;105085;1271;76005;-24
2022/08/26 07:23:33;;;;;;;6.70;4.60;;;;;;;24.51;49.00;98816.02;105006;1271;74397;-24
2022/08/26 07:26:05;;;;;;;27.80;13.30;;;;;;;24.61;49.41;98818.49;104786;1274;62782;-24
2022/08/26 07:28:32;;;;;;;25.80;12.60;;;;;;;24.86;49.59;98817.45;104823;1274;61690;-24
2022/08/26 07:31:07;;;;;;;40.80;22.50;;;;;;;24.85;48.77;98812.62;105128;1271;76582;-23
2022/08/26 07:33:37;;;;;;;17.30;10.70;;;;;;;24.81;49.28;98811.34;105111;1272;76731;-24
2022/08/26 07:36:05;;;;;;;29.40;15.30;;;;;;;24.95;48.85;98808.10;104792;1271;74576;-24
2022/08/26 07:38:33;;;;;;;17.60;9.90;;;;;;;24.93;47.64;98802.92;104522;1271;61836;-24
2022/08/26 07:41:01;;;;;;;22.30;11.40;;;;;;;25.10;47.52;98802.36;104664;1271;62887;-24
2022/08/26 07:43:28;;;;;;;11.80;6.50;;;;;;;25.50;47.02;98798.73;104826;1273;76802;-24
2022/08/26 07:45:56;;;;;;;23.10;10.10;;;;;;;25.70;45.50;98797.20;104735;1271;77111;-24
2022/08/26 07:48:23;;;;;;;34.60;19.00;;;;;;;25.93;46.10;98794.25;104764;1271;75282;-24
2022/08/26 07:50:52;;;;;;;25.20;12.30;;;;;;;25.93;44.36;98791.39;104752;1271;62062;-24
2022/08/26 07:53:20;;;;;;;24.30;12.70;;;;;;;26.06;44.01;98786.86;104768;1274;61999;-24
2022/08/26 07:55:50;;;;;;;24.70;13.40;;;;;;;26.08;43.34;98784.76;104648;1271;76577;-24
2022/08/26 07:58:17;;;;;;;9.20;5.60;;;;;;;25.78;43.60;98783.46;105093;1271;77066;-24
2022/08/26 08:00:45;;;;;;;19.90;8.10;;;;;;;26.19;43.16;98779.73;105115;1270;75031;-24
2022/08/26 08:03:13;;;;;;;14.40;7.60;;;;;;;26.64;42.80;98778.40;105112;1271;63101;-24
2022/08/26 08:05:41;;;;;;;12.20;5.40;;;;;;;26.74;41.35;98773.70;105055;1271;61987;-24
2022/08/26 08:08:12;;;;;;;9.10;4.60;;;;;;;26.95;41.07;98771.80;104781;1271;76401;-24
2022/08/26 08:10:55;;;;;;;30.60;19.90;;;;;;;27.28;40.62;98768.74;104782;1271;77066;-23
2022/08/26 08:13:22;;;;;;;51.10;42.10;;;;;;;27.35;39.88;98762.65;104839;1272;75541;-24
2022/08/26 08:15:49;;;;;;;19.60;10.70;;;;;;;27.11;39.87;98762.79;104619;1271;62079;-23
2022/08/26 08:18:17;;;;;;;37.80;23.40;;;;;;;27.17;40.73;98764.59;104805;1271;62740;-24
2022/08/26 08:20:46;;;;;;;25.40;17.00;;;;;;;27.56;40.86;98757.86;105080;1271;75742;-23
2022/08/26 08:23:30;;;;;;;32.20;22.40;;;;;;;27.96;38.70;98757.86;104990;1274;75997;-24
2022/08/26 08:26:06;;;;;;;51.20;31.70;;;;;;;28.03;38.03;98758.11;104740;1274;74095;-23
2022/08/26 08:28:35;;;;;;;153.10;85.60;;;;;;;28.31;37.34;98757.20;104625;1271;62316;-23
2022/08/26 08:31:02;;;;;;;72.10;37.10;;;;;;;28.55;37.97;98759.67;104946;1271;62744;-23
2022/08/26 08:33:30;;;;;;;575.90;349.20;;;;;;;28.40;36.11;98759.61;105060;1271;76348;-23
2022/08/26 08:35:57;;;;;;;226.30;121.50;;;;;;;27.77;36.43;98755.98;105105;1272;76105;-24
2022/08/26 08:38:25;;;;;;;50.80;25.10;;;;;;;27.82;36.49;98752.31;104679;1271;73811;-22
2022/08/26 08:40:52;;;;;;;30.50;14.90;;;;;;;28.19;36.96;98754.73;104840;1271;63097;-23
2022/08/26 08:43:39;;;;;;;10.80;5.20;;;;;;;28.47;35.02;98754.14;104826;1274;62963;-25
2022/08/26 08:46:11;;;;;;;11.10;6.00;;;;;;;28.19;35.05;98753.87;104762;1271;75529;-23
2022/08/26 08:48:42;;;;;;;16.10;6.40;;;;;;;27.97;35.26;98751.41;104744;1272;76992;-23
2022/08/26 08:51:09;;;;;;;12.30;6.30;;;;;;;28.43;34.26;98749.09;104805;1274;74389;-23
2022/08/26 08:53:40;;;;;;;10.90;4.70;;;;;;;28.61;34.53;98744.41;104921;1271;63120;-23
2022/08/26 08:56:30;;;;;;;12.60;7.00;;;;;;;28.56;34.37;98744.85;105083;1271;62991;-23
2022/08/26 08:58:57;;;;;;;16.90;7.20;;;;;;;28.32;34.92;98743.83;105001;1271;76370;-23
2022/08/26 09:01:46;;;;;;;14.20;6.50;;;;;;;28.36;35.07;98738.80;104825;1274;77017;-22
2022/08/26 09:04:36;;;;;;;8.50;4.10;;;;;;;29.26;34.82;98734.12;104788;1271;75438;-22
2022/08/26 09:07:06;;;;;;;11.20;4.30;;;;;;;29.62;33.99;98731.61;104850;1272;61720;-23
2022/08/26 09:09:44;;;;;;;13.30;4.60;;;;;;;29.99;32.30;98728.67;104648;1272;62788;-22
2022/08/26 09:12:16;;;;;;;13.60;5.50;;;;;;;30.02;30.74;98728.63;104814;1271;76436;-22
2022/08/26 09:14:49;;;;;;;15.30;4.40;;;;;;;29.69;30.77;98726.45;104654;1271;76670;-23
2022/08/26 09:17:42;;;;;;;10.90;4.90;;;;;;;29.63;30.91;98722.94;104902;1271;75184;-23
2022/08/26 09:20:22;;;;;;;9.60;4.50;;;;;;;29.84;30.88;98717.15;105027;1274;62099;-23
2022/08/26 09:22:50;;;;;;;16.90;5.60;;;;;;;29.37;31.34;98715.18;104909;1271;63097;-23
2022/08/26 09:25:17;;;;;;;13.30;5.30;;;;;;;29.66;31.90;98715.16;104795;1271;76051;-22
2022/08/26 09:27:49;;;;;;;9.40;4.70;;;;;;;30.00;30.46;98714.08;105105;1271;76640;-24
2022/08/26 09:30:25;;;;;;;17.10;5.10;;;;;;;29.98;30.16;98710.71;104971;1271;74313;-25
2022/08/26 09:33:05;;;;;;;11.60;5.00;;;;;;;29.67;30.76;98717.20;104818;1272;63258;-24
2022/08/26 09:35:39;;;;;;;15.80;5.80;;;;;;;29.52;30.13;98713.20;105046;1271;62770;-24
2022/08/26 09:38:27;;;;;;;8.40;4.40;;;;;;;30.00;30.53;98713.30;104856;1271;76277;-24
2022/08/26 09:41:03;;;;;;;11.90;5.10;;;;;;;31.06;29.79;98711.73;105004;1271;75853;-24
2022/08/26 09:43:31;;;;;;;12.10;5.20;;;;;;;30.70;29.17;98708.20;104782;1271;74256;-24
2022/08/26 09:46:18;;;;;;;11.80;5.40;;;;;;;30.42;29.01;98705.69;105021;1271;61688;-24
2022/08/26 09:48:45;;;;;;;12.20;5.20;;;;;;;30.89;29.28;98703.89;104996;1272;62901;-24
2022/08/26 09:51:23;;;;;;;13.80;6.20;;;;;;;30.81;28.23;98698.77;104986;1274;76263;-24
2022/08/26 09:53:53;;;;;;;16.00;4.60;;;;;;;30.52;28.54;98696.64;104979;1272;75729;-24
2022/08/26 09:56:20;;;;;;;9.80;4.70;;;;;;;30.90;28.50;98695.36;105059;1271;73318;-24
2022/08/26 09:58:49;;;;;;;24.20;5.90;;;;;;;30.77;28.56;98696.85;104863;1271;61829;-23
2022/08/26 10:01:22;;;;;;;14.30;5.10;;;;;;;30.56;28.30;98696.42;105045;1271;61886;-23
2022/08/26 10:03:50;;;;;;;16.60;5.50;;;;;;;30.97;28.45;98695.91;104862;1274;75301;-23
2022/08/26 10:06:18;;;;;;;9.90;5.30;;;;;;;30.94;28.30;98696.98;104873;1271;75787;-24
2022/08/26 10:08:57;;;;;;;11.40;4.90;;;;;;;31.76;27.01;98697.39;104728;1274;74494;-24
2022/08/26 10:11:45;;;;;;;7.60;3.80;;;;;;;32.09;25.28;98694.64;104992;1271;62819;-24
2022/08/26 10:14:23;;;;;;;11.90;4.20;;;;;;;32.45;26.06;98696.80;104905;1274;62983;-24
2022/08/26 10:17:04;;;;;;;10.90;4.20;;;;;;;32.86;24.91;98690.67;104883;1271;76526;-24
2022/08/26 10:19:52;;;;;;;7.90;3.60;;;;;;;32.91;24.44;98694.79;105127;1271;76674;-24
2022/08/26 10:22:34;;;;;;;12.30;3.20;;;;;;;33.04;23.93;98685.58;104673;1271;74523;-24
2022/08/26 10:25:02;;;;;;;8.80;3.10;;;;;;;33.07;22.85;98682.59;105021;1274;62901;-24
2022/08/26 10:27:43;;;;;;;8.00;3.00;;;;;;;32.84;23.40;98686.20;104822;1274;62785;-24
2022/08/26 10:30:21;;;;;;;13.30;3.10;;;;;;;32.17;22.99;98682.92;104908;1274;76589;-24
2022/08/26 10:32:54;;;;;;;11.00;2.60;;;;;;;32.47;23.75;98681.85;104636;1271;76837;-24
2022/08/26 10:35:22;;;;;;;11.80;3.00;;;;;;;32.54;23.17;98674.44;104957;1271;75401;-24
2022/08/26 10:37:55;;;;;;;12.70;2.90;;;;;;;32.60;23.48;98677.54;104892;1271;62804;-24
2022/08/26 10:40:25;;;;;;;7.60;2.70;;;;;;;33.02;23.38;98671.15;104683;1271;62822;-24
2022/08/26 10:43:02;;;;;;;8.30;2.70;;;;;;;33.25;22.06;98668.40;104791;1271;76447;-24
2022/08/26 10:45:48;;;;;;;27.70;11.70;;;;;;;33.69;23.20;98665.16;104648;1271;75886;-24
2022/08/26 10:48:27;;;;;;;21.30;9.20;;;;;;;34.07;21.54;98659.27;104675;1274;75749;-24
2022/08/26 10:51:02;;;;;;;9.90;3.70;;;;;;;34.25;21.49;98658.64;104628;1274;61939;-24
2022/08/26 10:53:43;;;;;;;10.70;2.70;;;;;;;34.30;20.98;98655.54;103866;1273;1606759;-24
2022/08/26 10:56:32;;;;;;;9.80;2.40;;;;;;;33.82;21.11;98650.56;105012;1274;75611;-25
2022/08/26 10:59:08;;;;;;;11.90;3.00;;;;;;;34.06;21.07;98652.19;105106;1271;75939;-24
2022/08/26 11:01:45;;;;;;;10.00;2.60;;;;;;;34.08;21.42;98651.79;104920;1274;75480;-24
2022/08/26 11:04:22;;;;;;;6.30;2.60;;;;;;;34.33;21.33;98648.85;104713;1271;61950;-24
2022/08/26 11:07:29;;;;;;;7.00;2.90;;;;;;;34.03;20.77;98644.70;104682;1274;63099;-24
2022/08/26 11:09:59;;;;;;;11.40;2.40;;;;;;;34.04;21.60;98644.65;104964;1271;75477;-25
2022/08/26 11:12:35;;;;;;;13.50;2.20;;;;;;;34.22;20.74;98639.59;104667;1273;77074;-25
2022/08/26 11:15:18;;;;;;;9.40;2.10;;;;;;;34.54;22.05;98642.16;104863;1271;75114;-24
2022/08/26 11:17:50;;;;;;;10.10;2.40;;;;;;;34.99;20.62;98637.46;104744;1271;62080;-24
2022/08/26 11:20:41;;;;;;;11.00;2.60;;;;;;;34.83;19.31;98635.08;105035;1274;63029;-24
2022/08/26 11:23:11;;;;;;;8.70;2.10;;;;;;;34.70;19.73;98634.31;104975;1271;76598;-24
2022/08/26 11:26:03;;;;;;;5.60;2.00;;;;;;;34.66;19.25;98631.12;105078;1271;77166;-24
2022/08/26 11:28:38;;;;;;;9.00;2.10;;;;;;;34.58;19.30;98632.28;105035;1271;74344;-24
2022/08/26 11:31:25;;;;;;;10.00;1.80;;;;;;;34.69;19.02;98629.90;104595;1274;62014;-24
2022/08/26 11:34:00;;;;;;;8.10;2.10;;;;;;;34.74;19.40;98629.70;104900;1274;61703;-24
2022/08/26 11:36:40;;;;;;;10.60;2.60;;;;;;;34.51;18.92;98627.69;104787;1274;76655;-24
2022/08/26 11:39:31;;;;;;;10.30;2.60;;;;;;;33.80;19.31;98628.30;104704;1271;75814;-24
2022/08/26 11:42:29;;;;;;;14.20;2.50;;;;;;;34.03;20.69;98628.04;104798;1271;75580;-26
2022/08/26 11:44:57;;;;;;;12.90;2.50;;;;;;;34.31;21.33;98626.50;104867;1274;63168;-25